createdAt,value
2017-11-23T00:01:30.044Z,7.00
2017-11-23T00:03:57.641Z,7.00
2017-11-23T00:06:26.000Z,6.90
2017-11-23T00:08:53.827Z,6.90
2017-11-23T00:11:21.370Z,6.90
2017-11-23T00:13:48.923Z,6.90
2017-11-23T00:16:16.659Z,6.80
2017-11-23T00:18:44.201Z,6.80
2017-11-23T00:21:11.859Z,6.80
2017-11-23T00:23:39.412Z,6.80
2017-11-23T00:26:07.064Z,6.80
2017-11-23T00:28:35.382Z,6.80
2017-11-23T00:31:03.001Z,6.80
2017-11-23T00:33:31.304Z,6.80
2017-11-23T00:35:58.898Z,6.80
2017-11-23T00:38:27.289Z,6.80
2017-11-23T00:40:54.852Z,6.80
2017-11-23T00:43:23.342Z,6.80
2017-11-23T00:45:50.931Z,6.80
2017-11-23T00:48:18.490Z,6.80
2017-11-23T00:50:46.067Z,6.70
2017-11-23T00:53:13.600Z,6.70
2017-11-23T00:55:41.219Z,6.70
2017-11-23T00:58:09.530Z,6.60
2017-11-23T01:00:37.075Z,6.60
2017-11-23T01:03:04.850Z,6.70
2017-11-23T01:05:32.430Z,6.60
2017-11-23T01:07:59.983Z,6.70
2017-11-23T01:10:27.570Z,6.70
2017-11-23T01:12:55.125Z,6.70
2017-11-23T01:15:22.706Z,6.70
2017-11-23T01:17:50.243Z,6.70
2017-11-23T01:20:17.995Z,6.70
2017-11-23T01:22:45.696Z,6.70
2017-11-23T01:25:13.286Z,6.70
2017-11-23T01:27:40.837Z,6.70
2017-11-23T01:30:09.251Z,6.70
2017-11-23T01:32:36.799Z,6.70
2017-11-23T01:35:04.707Z,6.70
2017-11-23T01:37:32.258Z,6.70
2017-11-23T01:39:59.810Z,6.70
2017-11-23T01:42:27.425Z,6.70
2017-11-23T01:44:55.739Z,6.70
2017-11-23T01:47:23.278Z,6.70
2017-11-23T01:49:50.914Z,6.70
2017-11-23T01:52:19.226Z,6.70
2017-11-23T01:54:46.805Z,6.70
2017-11-23T01:57:14.362Z,6.70
2017-11-23T01:59:42.006Z,6.70
2017-11-23T02:02:10.314Z,6.70
2017-11-23T02:04:37.871Z,6.60
2017-11-23T02:07:05.762Z,6.60
2017-11-23T02:09:33.359Z,6.60
2017-11-23T02:12:00.914Z,6.60
2017-11-23T02:14:28.530Z,6.60
2017-11-23T02:16:56.066Z,6.60
2017-11-23T02:19:23.604Z,6.60
2017-11-23T02:21:51.406Z,6.50
2017-11-23T02:24:18.948Z,6.50
2017-11-23T02:26:47.438Z,6.50
2017-11-23T02:29:14.987Z,6.50
2017-11-23T02:31:42.532Z,6.50
2017-11-23T02:34:10.124Z,6.50
2017-11-23T02:36:42.907Z,6.50
2017-11-23T02:39:10.479Z,6.50
2017-11-23T02:41:38.188Z,6.60
2017-11-23T02:44:05.731Z,6.60
2017-11-23T02:46:34.042Z,6.60
2017-11-23T02:49:01.622Z,6.60
2017-11-23T02:51:29.204Z,6.60
2017-11-23T02:53:56.766Z,6.70
2017-11-23T02:56:24.384Z,6.70
2017-11-23T02:58:51.939Z,6.70
2017-11-23T03:01:19.486Z,6.80
2017-11-23T03:03:47.514Z,6.80
2017-11-23T03:06:15.073Z,6.80
2017-11-23T03:08:42.600Z,6.90
2017-11-23T03:11:10.175Z,6.90
2017-11-23T03:13:37.769Z,6.90
2017-11-23T03:16:05.314Z,7.00
2017-11-23T03:18:34.519Z,7.00
2017-11-23T03:21:02.078Z,7.00
2017-11-23T03:23:29.657Z,7.10
2017-11-23T03:25:57.962Z,7.10
2017-11-23T03:28:25.502Z,7.10
2017-11-23T03:30:53.959Z,7.20
2017-11-23T03:33:21.492Z,7.20
2017-11-23T03:35:49.310Z,7.20
2017-11-23T03:38:17.713Z,7.20
2017-11-23T03:40:45.342Z,7.20
2017-11-23T03:43:13.655Z,7.30
2017-11-23T03:45:41.985Z,7.30
2017-11-23T03:48:09.558Z,7.30
2017-11-23T03:50:37.926Z,7.30
2017-11-23T03:53:05.462Z,7.30
2017-11-23T03:55:33.002Z,7.30
2017-11-23T03:58:01.303Z,7.40
2017-11-23T04:00:28.867Z,7.40
2017-11-23T04:02:56.406Z,7.40
2017-11-23T04:05:23.981Z,7.40
2017-11-23T04:07:51.687Z,7.40
2017-11-23T04:10:19.986Z,7.40
2017-11-23T04:12:47.541Z,7.40
2017-11-23T04:15:15.277Z,7.50
2017-11-23T04:17:43.581Z,7.50
2017-11-23T04:20:11.150Z,7.50
2017-11-23T04:22:38.799Z,7.50
2017-11-23T04:25:06.339Z,7.50
2017-11-23T04:27:34.686Z,7.60
2017-11-23T04:30:02.223Z,7.50
2017-11-23T04:32:30.109Z,7.60
2017-11-23T04:34:57.918Z,7.60
2017-11-23T04:37:26.217Z,7.70
2017-11-23T04:39:53.806Z,7.70
2017-11-23T04:42:21.734Z,7.70
2017-11-23T04:44:49.274Z,7.70
2017-11-23T04:47:17.587Z,7.70
2017-11-23T04:49:45.313Z,7.60
2017-11-23T04:52:13.621Z,7.70
2017-11-23T04:54:41.214Z,7.60
2017-11-23T04:57:08.836Z,7.70
2017-11-23T04:59:36.384Z,7.70
2017-11-23T05:02:04.742Z,7.60
2017-11-23T05:04:32.299Z,7.60
2017-11-23T05:07:00.255Z,7.60
2017-11-23T05:09:27.811Z,7.60
2017-11-23T05:11:55.357Z,7.60
2017-11-23T05:14:22.973Z,7.60
2017-11-23T05:16:51.274Z,7.70
2017-11-23T05:19:18.826Z,7.70
2017-11-23T05:21:46.694Z,7.70
2017-11-23T05:24:14.239Z,7.70
2017-11-23T05:26:42.595Z,7.80
2017-11-23T05:29:10.130Z,7.80
2017-11-23T05:31:37.747Z,7.80
2017-11-23T05:34:05.707Z,7.90
2017-11-23T05:36:34.012Z,7.90
2017-11-23T05:39:01.647Z,7.90
2017-11-23T05:41:30.208Z,8.00
2017-11-23T05:43:57.746Z,8.00
2017-11-23T05:46:25.287Z,8.00
2017-11-23T05:48:52.899Z,8.00
2017-11-23T05:51:21.208Z,8.10
2017-11-23T05:53:48.770Z,8.10
2017-11-23T05:56:16.510Z,8.10
2017-11-23T05:58:44.820Z,8.20
2017-11-23T06:01:12.359Z,8.20
2017-11-23T06:03:39.955Z,8.20
2017-11-23T06:06:07.494Z,8.20
2017-11-23T06:08:35.105Z,8.30
2017-11-23T06:11:02.650Z,8.30
2017-11-23T06:13:30.207Z,8.40
2017-11-23T06:15:58.206Z,8.40
2017-11-23T06:18:26.506Z,8.50
2017-11-23T06:20:54.050Z,8.40
2017-11-23T06:23:22.462Z,8.50
2017-11-23T06:25:50.049Z,8.50
2017-11-23T06:28:17.602Z,8.50
2017-11-23T06:30:45.385Z,8.60
2017-11-23T06:33:12.934Z,8.60
2017-11-23T06:35:43.257Z,8.60
2017-11-23T06:38:10.799Z,8.70
2017-11-23T06:40:38.338Z,8.70
2017-11-23T06:43:05.939Z,8.70
2017-11-23T06:45:33.760Z,8.80
2017-11-23T06:48:01.306Z,8.80
2017-11-23T06:50:29.602Z,8.90
2017-11-23T06:52:57.231Z,8.90
2017-11-23T06:55:26.812Z,9.00
2017-11-23T06:57:54.400Z,8.90
2017-11-23T07:00:22.848Z,9.00
2017-11-23T07:02:50.428Z,9.00
2017-11-23T07:05:18.360Z,9.10
2017-11-23T07:07:46.082Z,9.20
2017-11-23T07:16:27.733Z,9.30
2017-11-23T07:18:55.704Z,9.30
2017-11-23T07:21:30.391Z,9.30
2017-11-23T07:41:28.416Z,9.50
2017-11-23T08:08:10.629Z,9.60
2017-11-23T08:10:47.636Z,9.70
2017-11-23T08:22:00.106Z,9.70
2017-11-23T08:24:27.731Z,9.80
2017-11-23T08:26:56.894Z,9.80
2017-11-23T08:29:26.212Z,9.90
2017-11-23T08:31:54.697Z,9.90
2017-11-23T08:51:45.119Z,10.10
2017-11-23T08:54:15.553Z,10.10
2017-11-23T08:56:46.764Z,10.20
2017-11-23T08:59:14.347Z,10.10
2017-11-23T09:01:41.950Z,10.20
2017-11-23T09:04:09.571Z,10.30
2017-11-23T09:06:37.959Z,10.40
2017-11-23T09:09:06.298Z,10.40
2017-11-23T09:11:37.876Z,10.40
2017-11-23T09:14:08.989Z,10.50
2017-11-23T09:16:37.571Z,10.50
2017-11-23T09:19:05.172Z,10.50
2017-11-23T09:21:33.532Z,10.60
2017-11-23T09:24:04.859Z,10.60
2017-11-23T09:26:32.411Z,10.60
2017-11-23T09:29:00.124Z,10.70
2017-11-23T09:31:28.530Z,10.70
2017-11-23T09:33:56.133Z,10.70
2017-11-23T09:36:23.730Z,10.70
2017-11-23T09:38:52.066Z,10.80
2017-11-23T09:41:19.614Z,10.70
2017-11-23T09:43:47.495Z,10.80
2017-11-23T09:46:15.091Z,10.80
2017-11-23T09:48:42.630Z,10.80
2017-11-23T09:51:10.236Z,10.80
2017-11-23T09:53:37.804Z,10.80
2017-11-23T09:56:06.854Z,10.80
2017-11-23T09:58:36.150Z,10.80
2017-11-23T10:01:04.511Z,10.90
2017-11-23T10:03:32.058Z,10.90
2017-11-23T10:05:59.694Z,10.90
2017-11-23T10:08:27.259Z,11.00
2017-11-23T10:10:54.873Z,11.10
2017-11-23T10:13:22.500Z,11.20
2017-11-23T10:15:53.269Z,11.20
2017-11-23T10:18:20.859Z,11.30
2017-11-23T10:20:48.462Z,11.30
2017-11-23T10:23:16.599Z,11.40
2017-11-23T10:25:47.776Z,11.50
2017-11-23T10:28:15.371Z,11.60
2017-11-23T10:30:42.966Z,11.60
2017-11-23T10:33:10.714Z,11.70
2017-11-23T10:35:39.125Z,11.80
2017-11-23T10:38:08.169Z,11.80
2017-11-23T10:40:35.820Z,11.80
2017-11-23T10:43:03.434Z,11.80
2017-11-23T10:45:31.151Z,11.90
2017-11-23T10:47:58.751Z,11.90
2017-11-23T10:50:26.514Z,11.90
2017-11-23T10:52:54.854Z,12.00
2017-11-23T10:55:22.482Z,12.00
2017-11-23T10:57:50.090Z,12.00
2017-11-23T11:00:20.319Z,12.00
2017-11-23T11:02:48.683Z,12.00
2017-11-23T11:05:16.519Z,12.00
2017-11-23T11:07:44.107Z,12.10
2017-11-23T11:10:11.767Z,12.10
2017-11-23T11:12:39.363Z,12.10
2017-11-23T11:15:07.335Z,12.10
2017-11-23T11:17:34.901Z,12.10
2017-11-23T11:20:02.528Z,12.00
2017-11-23T11:22:31.567Z,12.00
2017-11-23T11:24:59.214Z,11.90
2017-11-23T11:27:27.462Z,11.90
2017-11-23T11:29:55.078Z,11.80
2017-11-23T11:32:22.643Z,11.80
2017-11-23T11:34:51.015Z,11.70
2017-11-23T11:37:18.584Z,11.70
2017-11-23T11:39:46.229Z,11.70
2017-11-23T11:42:13.792Z,11.70
2017-11-23T11:44:41.408Z,11.70
2017-11-23T11:47:08.976Z,11.60
2017-11-23T11:49:37.358Z,11.70
2017-11-23T11:52:05.687Z,11.70
2017-11-23T11:54:33.344Z,11.70
2017-11-23T11:57:00.915Z,11.70
2017-11-23T11:59:28.839Z,11.70
2017-11-23T12:01:56.442Z,11.80
2017-11-23T12:04:24.111Z,11.80
2017-11-23T12:06:51.694Z,11.90
2017-11-23T12:09:19.493Z,12.00
2017-11-23T12:11:47.251Z,12.00
2017-11-23T12:14:29.642Z,12.10
2017-11-23T12:17:10.607Z,12.10
2017-11-23T12:19:52.032Z,12.20
2017-11-23T12:22:31.412Z,12.20
2017-11-23T12:25:03.025Z,12.20
2017-11-23T12:27:42.506Z,12.20
2017-11-23T12:30:12.249Z,12.30
2017-11-23T12:32:40.594Z,12.30
2017-11-23T12:35:08.189Z,12.30
2017-11-23T12:37:35.756Z,12.30
2017-11-23T12:40:03.383Z,12.30
2017-11-23T12:42:30.929Z,12.30
2017-11-23T12:44:58.475Z,12.30
2017-11-23T12:47:26.370Z,12.30
2017-11-23T12:49:53.967Z,12.30
2017-11-23T12:52:22.293Z,12.30
2017-11-23T12:54:49.898Z,12.30
2017-11-23T12:57:18.235Z,12.40
2017-11-23T12:59:45.972Z,12.40
2017-11-23T13:02:13.515Z,12.40
2017-11-23T13:04:41.833Z,12.50
2017-11-23T13:07:10.023Z,12.40
2017-11-23T13:09:37.566Z,12.50
2017-11-23T13:12:05.155Z,12.50
2017-11-23T13:14:32.738Z,12.60
2017-11-23T13:17:01.056Z,12.60
2017-11-23T13:19:28.695Z,12.60
2017-11-23T13:21:56.264Z,12.70
2017-11-23T13:24:24.219Z,12.70
2017-11-23T13:26:51.994Z,12.70
2017-11-23T13:29:19.537Z,12.70
2017-11-23T13:31:47.270Z,12.80
2017-11-23T13:34:14.810Z,12.80
2017-11-23T13:36:43.046Z,12.80
2017-11-23T13:39:10.654Z,12.90
2017-11-23T13:41:38.193Z,12.90
2017-11-23T13:44:05.734Z,12.90
2017-11-23T13:46:33.649Z,12.90
2017-11-23T13:49:06.138Z,12.90
2017-11-23T13:51:33.698Z,13.00
2017-11-23T13:54:01.322Z,13.00
2017-11-23T13:56:28.876Z,13.00
2017-11-23T13:58:56.653Z,13.00
2017-11-23T14:01:24.542Z,13.10
2017-11-23T14:03:52.096Z,13.10
2017-11-23T14:06:19.647Z,13.10
2017-11-23T14:08:47.401Z,13.10
2017-11-23T14:11:15.738Z,13.00
2017-11-23T14:13:43.290Z,13.00
2017-11-23T14:16:11.166Z,13.10
2017-11-23T14:18:38.750Z,13.10
2017-11-23T14:21:07.178Z,13.00
2017-11-23T14:23:34.734Z,13.00
2017-11-23T14:26:02.438Z,13.00
2017-11-23T14:28:30.132Z,13.00
2017-11-23T14:30:58.454Z,12.90
2017-11-23T14:33:26.240Z,12.80
2017-11-23T14:35:53.799Z,12.80
2017-11-23T14:38:21.406Z,12.70
2017-11-23T14:40:48.956Z,12.70
2017-11-23T14:43:16.558Z,12.70
2017-11-23T14:45:44.119Z,12.70
2017-11-23T14:48:11.702Z,12.70
2017-11-23T14:50:39.254Z,12.70
2017-11-23T14:53:06.915Z,12.70
2017-11-23T14:55:34.465Z,12.70
2017-11-23T14:58:03.706Z,12.70
2017-11-23T15:00:31.261Z,12.70
2017-11-23T15:03:00.847Z,12.70
2017-11-23T15:05:28.404Z,12.70
2017-11-23T15:07:55.947Z,12.70
2017-11-23T15:10:23.831Z,12.70
2017-11-23T15:12:56.306Z,12.70
2017-11-23T15:15:23.848Z,12.70
2017-11-23T15:17:51.484Z,12.80
2017-11-23T15:20:19.031Z,12.80
2017-11-23T15:22:47.346Z,12.80
2017-11-23T15:25:15.447Z,12.80
2017-11-23T15:27:43.402Z,12.80
2017-11-23T15:30:10.944Z,12.80
2017-11-23T15:32:38.766Z,12.80
2017-11-23T15:35:07.088Z,12.80
2017-11-23T15:37:34.686Z,12.80
2017-11-23T15:40:02.298Z,12.80
2017-11-23T15:42:29.848Z,12.80
2017-11-23T15:44:57.409Z,12.80
2017-11-23T15:47:25.363Z,12.80
2017-11-23T15:49:52.927Z,12.80
2017-11-23T15:52:20.490Z,12.70
2017-11-23T15:54:48.083Z,12.70
2017-11-23T15:57:15.633Z,12.70
2017-11-23T15:59:43.347Z,12.70
2017-11-23T16:02:10.906Z,12.60
2017-11-23T16:04:38.455Z,12.60
2017-11-23T16:07:06.419Z,12.60
2017-11-23T16:09:33.989Z,12.60
2017-11-23T16:12:01.535Z,12.60
2017-11-23T16:14:29.123Z,12.60
2017-11-23T16:16:57.489Z,12.50
2017-11-23T16:19:25.035Z,12.50
2017-11-23T16:21:52.591Z,12.50
2017-11-23T16:24:20.663Z,12.50
2017-11-23T16:26:48.277Z,12.40
2017-11-23T16:29:16.142Z,12.40
2017-11-23T16:31:43.698Z,12.50
2017-11-23T16:34:12.092Z,12.50
2017-11-23T16:36:50.391Z,12.50
2017-11-23T16:39:18.730Z,12.50
2017-11-23T16:41:50.910Z,12.50
2017-11-23T16:44:24.926Z,12.50
2017-11-23T16:46:58.090Z,12.50
2017-11-23T16:49:31.299Z,12.40
2017-11-23T16:52:04.581Z,12.40
2017-11-23T16:54:37.734Z,12.30
2017-11-23T16:57:11.141Z,12.20
2017-11-23T16:59:40.150Z,12.10
2017-11-23T17:02:14.677Z,12.10
2017-11-23T17:04:47.897Z,12.00
2017-11-23T17:07:33.023Z,11.80
2017-11-23T17:10:06.497Z,11.80
2017-11-23T17:12:39.754Z,11.80
2017-11-23T17:15:13.750Z,11.80
2017-11-23T17:17:46.955Z,11.70
2017-11-23T17:20:14.601Z,11.70
2017-11-23T17:22:42.162Z,11.70
2017-11-23T17:25:09.819Z,11.70
2017-11-23T17:27:37.372Z,11.70
2017-11-23T17:30:04.931Z,11.60
2017-11-23T17:32:37.426Z,11.60
2017-11-23T17:35:05.024Z,11.60
2017-11-23T17:37:33.555Z,11.60
2017-11-23T17:40:01.151Z,11.50
2017-11-23T17:42:28.702Z,11.50
2017-11-23T17:45:01.474Z,11.60
2017-11-23T17:47:29.022Z,11.50
2017-11-23T17:49:56.570Z,11.50
2017-11-23T17:52:24.289Z,11.50
2017-11-23T17:54:52.600Z,11.50
2017-11-23T17:57:20.142Z,11.40
2017-11-23T17:59:47.739Z,11.50
2017-11-23T18:02:15.330Z,11.40
2017-11-23T18:04:42.878Z,11.40
2017-11-23T18:07:10.485Z,11.40
2017-11-23T18:09:38.035Z,11.40
2017-11-23T18:12:06.350Z,11.40
2017-11-23T18:14:34.026Z,11.40
2017-11-23T18:17:01.590Z,11.40
2017-11-23T18:19:30.786Z,11.30
2017-11-23T18:21:58.334Z,11.30
2017-11-23T18:24:25.880Z,11.30
2017-11-23T18:26:53.482Z,11.30
2017-11-23T18:29:21.262Z,11.30
2017-11-23T18:31:49.575Z,11.20
2017-11-23T18:34:17.166Z,11.20
2017-11-23T18:36:44.850Z,11.20
2017-11-23T18:39:16.081Z,11.20
2017-11-23T18:41:43.642Z,11.10
2017-11-23T18:44:11.722Z,11.10
2017-11-23T18:46:39.289Z,11.10
2017-11-23T18:49:06.838Z,11.10
2017-11-23T18:51:34.438Z,11.10
2017-11-23T18:54:02.750Z,11.00
2017-11-23T18:56:30.309Z,11.00
2017-11-23T18:58:58.023Z,11.00
2017-11-23T19:01:26.351Z,11.00
2017-11-23T19:03:53.922Z,11.00
2017-11-23T19:06:21.663Z,11.00
2017-11-23T19:08:49.268Z,10.90
2017-11-23T19:11:16.831Z,10.90
2017-11-23T19:13:44.433Z,10.90
2017-11-23T19:16:12.017Z,10.90
2017-11-23T19:18:39.574Z,10.90
2017-11-23T19:21:07.463Z,10.90
2017-11-23T19:23:35.052Z,10.90
2017-11-23T19:26:02.603Z,10.90
2017-11-23T19:28:30.246Z,10.90
2017-11-23T19:30:57.815Z,10.90
2017-11-23T19:33:25.410Z,10.90
2017-11-23T19:35:53.728Z,10.90
2017-11-23T19:38:26.434Z,10.80
2017-11-23T19:40:53.983Z,10.90
2017-11-23T19:43:21.598Z,10.80
2017-11-23T19:45:49.154Z,10.80
2017-11-23T19:48:17.471Z,10.80
2017-11-23T19:50:45.058Z,10.80
2017-11-23T19:53:12.838Z,10.80
2017-11-23T19:55:40.381Z,10.70
2017-11-23T19:58:07.979Z,10.70
2017-11-23T20:00:35.607Z,10.70
2017-11-23T20:03:03.159Z,10.70
2017-11-23T20:05:30.711Z,10.70
2017-11-23T20:07:58.322Z,10.60
2017-11-23T20:10:25.865Z,10.60
2017-11-23T20:12:54.185Z,10.60
2017-11-23T20:15:26.879Z,10.50
2017-11-23T20:17:54.430Z,10.50
2017-11-23T20:20:21.984Z,10.50
2017-11-23T20:22:50.061Z,10.50
2017-11-23T20:25:17.622Z,10.40
2017-11-23T20:27:45.166Z,10.40
2017-11-23T20:30:13.380Z,10.40
2017-11-23T20:32:40.923Z,10.40
2017-11-23T20:35:08.790Z,10.30
2017-11-23T20:37:36.342Z,10.30
2017-11-23T20:40:04.066Z,10.30
2017-11-23T20:42:32.386Z,10.30
2017-11-23T20:45:00.084Z,10.30
2017-11-23T20:47:27.625Z,10.30
2017-11-23T20:49:55.174Z,10.30
2017-11-23T20:52:22.917Z,10.30
2017-11-23T20:54:50.458Z,10.20
2017-11-23T20:57:18.767Z,10.20
2017-11-23T20:59:46.367Z,10.20
2017-11-23T21:02:13.963Z,10.20
2017-11-23T21:04:41.590Z,10.20
2017-11-23T21:07:09.152Z,10.20
2017-11-23T21:09:37.824Z,10.20
2017-11-23T21:12:05.414Z,10.10
2017-11-23T21:14:33.735Z,10.10
2017-11-23T21:17:01.338Z,10.10
2017-11-23T21:19:28.890Z,10.10
2017-11-23T21:21:56.438Z,10.00
2017-11-23T21:24:24.102Z,10.00
2017-11-23T21:26:51.655Z,10.00
2017-11-23T21:29:19.511Z,10.00
2017-11-23T21:31:47.074Z,10.00
2017-11-23T21:34:14.800Z,10.00
2017-11-23T21:36:42.355Z,10.00
2017-11-23T21:39:10.711Z,10.00
2017-11-23T21:41:38.262Z,10.00
2017-11-23T21:44:05.998Z,10.00
2017-11-23T21:46:33.597Z,10.00
2017-11-23T21:49:01.139Z,10.00
2017-11-23T21:51:28.768Z,10.00
2017-11-23T21:53:56.324Z,9.90
2017-11-23T21:56:23.874Z,9.90
2017-11-23T21:58:51.891Z,10.00
2017-11-23T22:01:19.438Z,10.00
2017-11-23T22:03:47.002Z,10.00
2017-11-23T22:06:14.643Z,10.00
2017-11-23T22:08:42.191Z,9.90
2017-11-23T22:11:09.739Z,9.90
2017-11-23T22:13:37.651Z,9.90
2017-11-23T22:16:05.192Z,9.90
2017-11-23T22:18:32.751Z,9.80
2017-11-23T22:21:00.505Z,9.80
2017-11-23T22:23:28.117Z,9.80
2017-11-23T22:25:56.454Z,9.70
2017-11-23T22:28:24.437Z,9.70
2017-11-23T22:30:52.199Z,9.70
2017-11-23T22:33:19.735Z,9.60
2017-11-23T22:35:47.470Z,9.60
2017-11-23T22:38:17.007Z,9.60
2017-11-23T22:40:44.569Z,9.60
2017-11-23T22:43:14.174Z,9.60
2017-11-23T22:45:41.737Z,9.60
2017-11-23T22:48:09.428Z,9.60
2017-11-23T22:50:36.975Z,9.60
2017-11-23T22:53:04.509Z,9.60
2017-11-23T22:55:32.095Z,9.60
2017-11-23T22:57:59.703Z,9.50
2017-11-23T23:00:28.023Z,9.50
2017-11-23T23:02:55.807Z,9.50
2017-11-23T23:05:23.350Z,9.50
2017-11-23T23:07:50.962Z,9.50
2017-11-23T23:10:19.286Z,9.50
2017-11-23T23:12:46.835Z,9.40
2017-11-23T23:15:14.415Z,9.40
2017-11-23T23:17:42.115Z,9.40
2017-11-23T23:20:09.753Z,9.40
2017-11-23T23:22:37.347Z,9.40
2017-11-23T23:25:05.657Z,9.40
2017-11-23T23:27:33.242Z,9.40
2017-11-23T23:30:00.788Z,9.40
2017-11-23T23:32:28.782Z,9.40
2017-11-23T23:34:56.325Z,9.40
2017-11-23T23:37:24.241Z,9.40
2017-11-23T23:39:52.557Z,9.40
2017-11-23T23:42:20.111Z,9.30
2017-11-23T23:44:47.695Z,9.30
2017-11-23T23:47:15.286Z,9.30
2017-11-23T23:49:42.829Z,9.30
2017-11-23T23:52:10.423Z,9.30
2017-11-23T23:54:38.734Z,9.30
2017-11-23T23:57:06.383Z,9.30
2017-11-23T23:59:33.934Z,9.30
